Time;durP1;ratioP1;P1;durP2;ratioP2;P2;SDS_P1;SDS_P2;PMS_P1;PMS_P2;Temp;Humidity;BMP_temperature;BMP_pressure;BME280_temperature;BME280_humidity;BME280_pressure;Samples;Min_cycle;Max_cycle;Signal;HPM_P1;HPM_P2
2022/01/05 00:02:25;;;;;;;160.75;83.28;;;;;;;6.19;64.03;94432.06;4949539;29;20036;-80
2022/01/05 00:04:50;;;;;;;159.10;84.55;;;;;;;6.19;64.00;94424.31;4945574;29;20035;-80
2022/01/05 00:07:16;;;;;;;173.60;91.82;;;;;;;6.16;63.95;94435.06;4929901;29;20051;-80
2022/01/05 00:09:42;;;;;;;180.10;95.35;;;;;;;6.08;64.08;94435.34;4949439;29;20028;-79
2022/01/05 00:12:08;;;;;;;191.60;93.97;;;;;;;6.02;64.59;94424.09;4915205;29;20404;-80
2022/01/05 00:14:34;;;;;;;137.60;72.10;;;;;;;5.99;65.11;94427.84;4947432;29;20086;-80
2022/01/05 00:16:59;;;;;;;177.50;91.55;;;;;;;6.04;63.93;94429.03;4951311;29;20035;-80
2022/01/05 00:19:25;;;;;;;190.45;97.38;;;;;;;5.98;63.03;94428.84;4948327;29;20551;-80
2022/01/05 00:21:50;;;;;;;169.65;88.70;;;;;;;5.91;63.43;94429.94;4947411;29;20035;-80
2022/01/05 00:24:16;;;;;;;170.88;90.20;;;;;;;5.84;63.28;94427.38;4930773;29;20043;-80
2022/01/05 00:26:41;;;;;;;146.70;74.47;;;;;;;5.80;64.58;94431.38;4903003;29;20054;-80
2022/01/05 00:29:07;;;;;;;133.82;73.55;;;;;;;5.82;64.05;94426.78;4917299;29;20461;-80
2022/01/05 00:31:32;;;;;;;133.80;70.05;;;;;;;5.69;64.71;94422.56;4902254;29;20039;-80
2022/01/05 00:33:58;;;;;;;167.73;79.88;;;;;;;5.69;63.68;94432.03;4919040;29;20040;-80
2022/01/05 00:36:23;;;;;;;149.35;80.55;;;;;;;5.58;64.97;94425.81;4936492;29;20035;-80
2022/01/05 00:38:49;;;;;;;141.68;73.97;;;;;;;5.55;64.48;94430.59;4918425;29;20046;-80
2022/01/05 00:41:16;;;;;;;132.40;71.13;;;;;;;5.45;65.28;94422.53;4936179;29;20055;-80
2022/01/05 00:43:42;;;;;;;128.35;67.78;;;;;;;5.46;65.26;94424.88;4939605;29;20035;-80
2022/01/05 00:46:07;;;;;;;134.43;66.65;;;;;;;5.47;65.98;94425.69;4938799;29;20063;-80
2022/01/05 00:48:34;;;;;;;122.07;66.40;;;;;;;5.38;64.51;94436.25;4939496;29;20062;-78
2022/01/05 00:51:03;;;;;;;125.18;66.00;;;;;;;5.34;65.04;94423.97;4928611;29;20055;-78
2022/01/05 00:53:29;;;;;;;137.43;68.70;;;;;;;5.34;64.68;94418.81;4971024;29;20035;-80
2022/01/05 00:55:55;;;;;;;143.98;69.65;;;;;;;5.30;64.54;94408.13;4905068;29;20032;-81
2022/01/05 00:58:20;;;;;;;132.82;64.55;;;;;;;5.27;66.13;94413.72;4904066;29;20039;-80
2022/01/05 01:00:46;;;;;;;134.80;67.95;;;;;;;5.24;64.96;94416.72;4941144;29;20099;-79
2022/01/05 01:03:14;;;;;;;130.85;65.05;;;;;;;5.19;64.99;94411.38;4916596;29;20028;-81
2022/01/05 01:05:39;;;;;;;133.18;64.78;;;;;;;5.18;66.54;94406.44;4918485;29;20047;-80
2022/01/05 01:08:05;;;;;;;135.63;64.82;;;;;;;5.21;66.15;94406.03;4902218;29;20058;-80
2022/01/05 01:10:31;;;;;;;116.50;57.60;;;;;;;5.26;65.60;94411.34;4936297;29;20483;-80
2022/01/05 01:12:56;;;;;;;114.38;54.25;;;;;;;5.22;65.69;94405.81;4934663;29;20098;-80
2022/01/05 01:15:22;;;;;;;116.65;56.95;;;;;;;5.25;65.44;94413.13;4918754;29;20050;-81
2022/01/05 01:17:47;;;;;;;116.50;54.88;;;;;;;5.22;65.48;94410.19;4917439;29;20035;-81
2022/01/05 01:20:13;;;;;;;118.13;52.22;;;;;;;5.20;64.77;94407.78;4950344;29;20027;-80
2022/01/05 01:22:38;;;;;;;99.32;48.88;;;;;;;5.24;66.30;94408.97;4933037;29;20042;-80
2022/01/05 01:25:05;;;;;;;96.43;47.15;;;;;;;5.30;66.05;94408.13;4960997;29;20031;-79
2022/01/05 01:27:30;;;;;;;111.80;50.35;;;;;;;5.28;65.75;94399.81;4946047;29;20036;-79
2022/01/05 01:29:55;;;;;;;114.82;48.55;;;;;;;5.23;65.79;94391.94;4962332;29;20067;-80
2022/01/05 01:32:21;;;;;;;101.20;49.83;;;;;;;5.27;66.58;94400.84;4964243;29;20039;-79
2022/01/05 01:34:46;;;;;;;104.00;51.28;;;;;;;5.23;65.40;94391.94;4946287;28;20042;-78
2022/01/05 01:37:12;;;;;;;101.40;46.22;;;;;;;5.19;66.82;94401.06;4929560;29;20050;-78
2022/01/05 01:43:10;;;;;;;97.93;48.92;;;;;;;5.12;65.60;94390.03;4918513;29;20051;-79
2022/01/05 01:45:38;;;;;;;93.85;44.80;;;;;;;5.16;64.40;94385.22;4927866;29;20043;-79
2022/01/05 01:48:04;;;;;;;80.78;39.47;;;;;;;5.12;66.21;94380.50;4957887;29;20035;-79
2022/01/05 01:50:32;;;;;;;88.82;42.08;;;;;;;5.10;66.30;94386.88;4959024;29;20049;-79
2022/01/05 01:53:00;;;;;;;85.18;45.35;;;;;;;5.10;65.41;94381.72;4961950;29;20098;-78
2022/01/05 01:55:26;;;;;;;102.80;46.03;;;;;;;5.10;65.36;94386.88;4964885;29;20031;-79
2022/01/05 01:57:55;;;;;;;87.63;45.70;;;;;;;5.06;65.64;94385.72;4947191;29;20098;-80
2022/01/05 02:00:20;;;;;;;107.63;49.63;;;;;;;5.03;64.77;94380.94;4964712;29;20035;-80
2022/01/05 02:02:46;;;;;;;100.07;50.95;;;;;;;4.99;66.03;94382.38;4904897;29;20035;-79
2022/01/05 02:05:11;;;;;;;100.25;48.22;;;;;;;4.99;66.91;94382.38;4937849;29;20031;-80
2022/01/05 02:07:37;;;;;;;112.50;50.72;;;;;;;5.01;65.57;94382.94;4919847;29;20034;-79
2022/01/05 02:10:09;;;;;;;117.68;51.08;;;;;;;5.00;66.06;94382.16;4934407;29;20031;-79
2022/01/05 02:12:34;;;;;;;;;;;;;;;4.97;65.86;94381.78;4933359;29;20032;-79
2022/01/05 02:15:00;;;;;;;89.38;46.78;;;;;;;4.90;67.09;94384.41;4948785;29;19918;-80
2022/01/05 02:17:42;;;;;;;96.90;50.20;;;;;;;4.95;66.50;94382.00;4921596;29;20035;-80
2022/01/05 02:20:26;;;;;;;109.47;53.60;;;;;;;4.97;65.49;94381.78;4951820;29;20047;-80
2022/01/05 02:22:54;;;;;;;110.70;54.85;;;;;;;4.99;65.98;94372.06;4945846;29;20496;-80
2022/01/05 02:25:23;;;;;;;113.70;57.20;;;;;;;4.98;65.66;94370.47;4930871;29;20031;-79
2022/01/05 02:27:52;;;;;;;122.78;58.35;;;;;;;4.94;65.76;94375.25;4946725;29;20043;-78
2022/01/05 02:30:23;;;;;;;127.68;62.20;;;;;;;4.94;65.77;94377.06;4964610;29;20105;-80
2022/01/05 02:32:48;;;;;;;126.43;60.75;;;;;;;4.94;65.54;94371.91;4951655;29;20031;-80
2022/01/05 02:35:23;;;;;;;127.97;64.38;;;;;;;4.93;65.98;94367.75;4949863;29;20039;-79
2022/01/05 02:37:52;;;;;;;130.27;62.08;;;;;;;4.86;65.63;94359.25;4952739;29;20039;-79
2022/01/05 02:40:24;;;;;;;122.57;58.50;;;;;;;4.95;65.33;94365.75;4952054;29;20040;-80
2022/01/05 02:42:56;;;;;;;116.60;61.13;;;;;;;4.87;65.20;94365.97;4932705;29;20036;-79
2022/01/05 02:45:25;;;;;;;121.55;62.45;;;;;;;4.88;65.26;94370.94;4920640;29;20050;-79
2022/01/05 02:47:55;;;;;;;116.72;59.80;;;;;;;4.74;65.06;94365.09;4917417;29;20035;-81
2022/01/05 02:50:21;;;;;;;120.90;53.70;;;;;;;4.79;64.89;94360.09;4901404;29;20046;-80
2022/01/05 02:52:46;;;;;;;103.47;49.90;;;;;;;4.75;64.93;94363.28;4948402;29;20035;-79
2022/01/05 02:55:14;;;;;;;98.85;48.50;;;;;;;4.75;65.42;94358.94;4934874;29;20484;-79
2022/01/05 02:57:40;;;;;;;111.30;53.17;;;;;;;4.66;64.83;94360.16;4932376;29;20134;-80
2022/01/05 03:00:08;;;;;;;95.95;42.88;;;;;;;4.63;65.85;94360.56;4916200;29;20042;-82
2022/01/05 03:02:34;;;;;;;137.27;51.60;;;;;;;4.54;65.31;94361.78;4918169;29;20032;-82
2022/01/05 03:08:06;;;;;;;129.27;53.35;;;;;;;4.50;65.28;94358.06;4947661;29;20042;-81
2022/01/05 03:10:32;;;;;;;135.13;49.95;;;;;;;4.48;65.61;94357.47;4917842;29;20086;-81
2022/01/05 03:12:57;;;;;;;102.85;45.55;;;;;;;4.52;66.57;94358.63;4916593;29;20027;-81
2022/01/05 03:15:26;;;;;;;112.57;46.97;;;;;;;4.51;66.10;94352.69;4916917;29;20043;-81
2022/01/05 03:17:53;;;;;;;115.13;60.00;;;;;;;4.51;66.76;94336.47;4922640;29;20039;-80
2022/01/05 03:20:20;;;;;;;131.48;75.93;;;;;;;4.53;66.45;94350.69;4932697;29;20031;-81
2022/01/05 03:22:46;;;;;;;132.70;76.70;;;;;;;4.57;66.69;94350.31;4951302;29;20031;-82
2022/01/05 03:25:18;;;;;;;137.68;74.13;;;;;;;4.44;66.43;94356.31;4915789;29;20070;-81
2022/01/05 03:27:45;;;;;;;144.45;85.10;;;;;;;4.52;65.33;94348.34;4933153;29;20043;-81
2022/01/05 03:30:14;;;;;;;128.60;72.30;;;;;;;4.53;65.84;94349.91;4916354;29;20165;-81
2022/01/05 03:35:31;;;;;;;131.63;72.35;;;;;;;4.47;66.68;94351.53;4936188;29;20046;-81
2022/01/05 03:43:06;;;;;;;137.43;73.45;;;;;;;4.33;66.00;94333.78;4941919;29;20063;-82
2022/01/05 03:45:56;;;;;;;146.52;79.47;;;;;;;4.45;65.43;94343.22;4950449;29;20047;-82
2022/01/05 03:52:00;;;;;;;124.93;70.40;;;;;;;4.30;66.45;94331.63;4931605;29;20067;-80
2022/01/05 03:54:26;;;;;;;147.82;78.82;;;;;;;4.33;66.78;94338.91;4917059;29;20047;-79
2022/01/05 03:56:51;;;;;;;147.07;74.43;;;;;;;4.31;67.21;94339.13;4946734;29;20031;-80
2022/01/05 03:59:21;;;;;;;152.60;79.85;;;;;;;4.24;66.46;94340.16;4933410;29;20031;-80
2022/01/05 04:01:46;;;;;;;137.75;71.75;;;;;;;4.27;66.70;94344.91;4954449;29;20199;-80
2022/01/05 04:04:12;;;;;;;127.45;67.70;;;;;;;4.29;66.46;94345.47;4955950;29;20495;-80
2022/01/05 04:06:43;;;;;;;122.70;67.45;;;;;;;4.32;67.34;94345.84;4922594;29;20039;-80
2022/01/05 04:09:10;;;;;;;135.03;68.90;;;;;;;4.35;66.82;94337.72;4933364;29;20032;-80
2022/01/05 04:11:36;;;;;;;131.98;67.72;;;;;;;4.43;67.00;94331.56;4904444;29;20295;-80
2022/01/05 04:14:01;;;;;;;128.63;70.93;;;;;;;4.45;65.87;94332.16;4901636;29;20050;-80
2022/01/05 04:16:29;;;;;;;168.38;82.30;;;;;;;4.46;65.80;94333.72;4935942;29;21089;-79
2022/01/05 04:18:55;;;;;;;190.00;92.70;;;;;;;4.34;64.97;94325.06;4902658;29;20126;-78
2022/01/05 04:21:20;;;;;;;205.40;104.43;;;;;;;4.35;65.66;94331.78;4903361;29;20031;-80
2022/01/05 04:23:49;;;;;;;250.70;129.13;;;;;;;4.24;65.95;94324.72;4935875;29;20032;-79
2022/01/05 04:26:14;;;;;;;226.38;115.68;;;;;;;4.28;66.98;94313.03;4906104;29;20074;-79
2022/01/05 04:28:40;;;;;;;236.68;119.53;;;;;;;4.31;66.51;94320.31;4933565;29;20035;-82
2022/01/05 04:31:12;;;;;;;185.70;100.25;;;;;;;4.39;66.22;94322.66;4919774;29;20563;-80
2022/01/05 04:33:37;;;;;;;303.47;156.57;;;;;;;4.35;65.67;94326.63;4902166;29;20043;-80
2022/01/05 04:36:03;;;;;;;294.20;156.48;;;;;;;4.34;65.54;94325.06;4938303;29;20023;-80
2022/01/05 04:38:28;;;;;;;284.10;145.00;;;;;;;4.26;65.34;94322.72;4935158;29;20098;-79
2022/01/05 04:40:57;;;;;;;197.23;103.18;;;;;;;4.31;66.41;94336.56;4920254;29;20027;-79
2022/01/05 04:43:22;;;;;;;285.30;147.35;;;;;;;4.25;65.46;94331.44;4951899;29;20027;-81
2022/01/05 04:45:49;;;;;;;193.73;107.78;;;;;;;4.20;67.06;94334.59;4921933;29;20078;-79
2022/01/05 04:48:14;;;;;;;139.55;71.72;;;;;;;4.22;68.02;94332.63;4927660;29;20095;-78
2022/01/05 04:50:40;;;;;;;132.60;71.57;;;;;;;4.32;67.78;94342.50;4944476;29;20522;-79
2022/01/05 04:53:05;;;;;;;129.63;69.57;;;;;;;4.32;67.12;94337.34;4941609;29;20047;-81
2022/01/05 04:55:31;;;;;;;140.07;70.47;;;;;;;4.34;67.23;94331.00;4915777;29;20467;-79
2022/01/05 04:57:56;;;;;;;193.25;104.03;;;;;;;4.25;67.35;94342.53;4930565;23;20019;-80
2022/01/05 05:00:24;;;;;;;188.52;101.18;;;;;;;4.29;66.44;94338.53;4940639;29;20043;-79
2022/01/05 05:02:49;;;;;;;183.23;100.53;;;;;;;4.17;65.72;94351.25;4939963;29;20039;-79
2022/01/05 05:05:15;;;;;;;188.70;95.05;;;;;;;4.16;65.92;94349.66;4906406;29;20059;-79
2022/01/05 05:07:40;;;;;;;139.95;73.13;;;;;;;4.11;65.56;94362.38;4922486;29;20563;-80
2022/01/05 05:10:06;;;;;;;109.88;68.07;;;;;;;4.05;65.39;94355.44;4939099;29;20055;-80
2022/01/05 05:12:31;;;;;;;138.02;71.10;;;;;;;3.99;66.32;94356.25;4910184;29;20040;-80
2022/01/05 05:14:57;;;;;;;137.52;76.75;;;;;;;3.99;66.34;94358.03;4925833;29;20035;-80
2022/01/05 05:17:22;;;;;;;134.48;77.07;;;;;;;4.11;66.09;94361.56;4924404;29;20095;-81
2022/01/05 05:19:48;;;;;;;146.60;83.50;;;;;;;4.08;65.88;94362.00;4925082;29;20592;-81
2022/01/05 05:22:15;;;;;;;157.60;93.95;;;;;;;3.96;66.81;94369.53;4928466;29;20026;-81
2022/01/05 05:24:41;;;;;;;149.30;83.70;;;;;;;3.98;66.52;94377.03;4928769;29;20103;-81
2022/01/05 05:27:06;;;;;;;149.55;77.20;;;;;;;4.07;66.78;94371.50;4913949;29;20044;-80
2022/01/05 05:29:32;;;;;;;147.18;81.47;;;;;;;4.08;66.62;94377.44;4914441;29;20024;-80
2022/01/05 05:31:57;;;;;;;160.40;90.88;;;;;;;4.10;65.87;94376.22;4928258;29;20036;-79
2022/01/05 05:34:24;;;;;;;154.35;88.97;;;;;;;4.15;65.48;94375.63;4943629;29;20035;-80
2022/01/05 05:36:50;;;;;;;123.97;71.05;;;;;;;4.03;66.97;94375.44;4922005;29;20032;-80
2022/01/05 05:39:19;;;;;;;147.77;81.68;;;;;;;4.06;67.15;94379.38;4920314;29;20039;-78
2022/01/05 05:41:44;;;;;;;126.78;70.32;;;;;;;4.09;67.16;94369.50;4920642;29;20377;-79
2022/01/05 05:44:10;;;;;;;155.32;88.03;;;;;;;4.10;67.04;94380.59;4936702;29;20075;-78
2022/01/05 05:46:38;;;;;;;196.55;111.20;;;;;;;4.05;66.87;94377.81;4934417;29;20031;-77
2022/01/05 05:49:03;;;;;;;176.77;103.07;;;;;;;4.11;67.08;94377.81;4919657;29;20028;-81
2022/01/05 05:51:29;;;;;;;194.95;107.32;;;;;;;4.15;66.50;94378.19;4920624;29;20528;-80
2022/01/05 05:53:54;;;;;;;252.80;131.93;;;;;;;4.10;66.27;94376.22;4921648;29;20035;-80
2022/01/05 05:56:20;;;;;;;171.88;88.32;;;;;;;4.15;66.75;94373.03;4919345;29;20031;-78
2022/01/05 05:58:45;;;;;;;144.50;75.95;;;;;;;4.20;67.13;94386.88;4904378;29;20032;-76
2022/01/05 06:01:11;;;;;;;244.20;127.82;;;;;;;4.25;66.25;94378.56;4916429;29;20058;-77
2022/01/05 06:03:36;;;;;;;252.38;144.98;;;;;;;4.18;65.63;94376.00;4936366;29;20491;-80
2022/01/05 06:06:01;;;;;;;227.93;126.38;;;;;;;4.21;66.09;94378.16;4939315;29;20503;-79
2022/01/05 06:08:27;;;;;;;266.02;150.82;;;;;;;4.16;66.06;94375.41;4938350;29;20439;-79
2022/01/05 06:10:52;;;;;;;303.27;182.73;;;;;;;4.16;65.71;94374.63;4905271;29;20507;-80
2022/01/05 06:13:18;;;;;;;284.40;167.95;;;;;;;4.22;65.81;94374.59;4920762;29;20035;-79
2022/01/05 06:15:43;;;;;;;332.38;202.00;;;;;;;4.16;65.92;94366.91;4920490;29;20052;-80
2022/01/05 06:18:11;;;;;;;351.17;222.65;;;;;;;4.20;65.45;94386.88;4905187;29;20050;-79
2022/01/05 06:20:37;;;;;;;308.92;180.68;;;;;;;4.26;66.11;94399.94;4937952;29;20080;-80
2022/01/05 06:23:02;;;;;;;228.48;128.50;;;;;;;4.36;66.34;94393.34;4919998;29;20051;-78
2022/01/05 06:25:28;;;;;;;321.73;198.48;;;;;;;4.46;64.94;94391.16;4888509;29;20039;-79
2022/01/05 06:27:53;;;;;;;290.98;166.82;;;;;;;4.50;65.08;94401.81;4920124;29;20053;-79
2022/01/05 06:30:19;;;;;;;246.63;140.20;;;;;;;4.66;64.97;94401.34;4937685;29;20043;-82
2022/01/05 06:32:45;;;;;;;231.85;129.52;;;;;;;4.74;64.55;94397.78;4938991;29;20043;-79
2022/01/05 06:35:11;;;;;;;293.95;158.90;;;;;;;4.83;65.08;94387.00;4920341;29;20040;-78
2022/01/05 06:37:36;;;;;;;213.95;121.95;;;;;;;4.96;64.03;94393.88;4920477;29;20142;-79
2022/01/05 06:40:02;;;;;;;137.13;73.78;;;;;;;4.99;65.17;94401.19;4921842;29;20032;-79
2022/01/05 06:42:27;;;;;;;205.88;112.55;;;;;;;5.09;64.40;94403.31;4923270;29;20035;-78
2022/01/05 06:44:53;;;;;;;280.30;157.18;;;;;;;5.18;63.89;94404.66;4922783;29;20043;-80
2022/01/05 06:47:18;;;;;;;301.77;168.43;;;;;;;5.18;63.31;94398.69;4908342;29;20043;-79
2022/01/05 06:49:44;;;;;;;217.90;119.47;;;;;;;5.31;63.78;94399.41;4908000;29;20533;-79
2022/01/05 06:52:11;;;;;;;242.13;126.50;;;;;;;5.40;63.67;94393.00;4922776;29;20405;-80
2022/01/05 06:54:38;;;;;;;278.60;152.10;;;;;;;5.39;63.52;94391.44;4921655;29;20036;-79
2022/01/05 06:57:04;;;;;;;347.73;192.80;;;;;;;5.50;63.00;94396.88;4905099;29;20036;-79
2022/01/05 06:59:29;;;;;;;355.60;199.00;;;;;;;5.67;62.87;94390.19;4938854;29;20055;-78
2022/01/05 07:01:55;;;;;;;383.38;228.30;;;;;;;5.89;62.89;94398.38;4904533;29;20024;-79
2022/01/05 07:04:20;;;;;;;420.05;261.63;;;;;;;6.15;61.30;94394.75;4904933;29;20032;-79
2022/01/05 07:06:46;;;;;;;343.73;193.23;;;;;;;6.36;62.04;94390.97;4921166;29;20161;-79
2022/01/05 07:09:11;;;;;;;290.90;154.15;;;;;;;6.61;61.43;94389.88;4920383;29;20039;-79
2022/01/05 07:11:37;;;;;;;291.80;150.50;;;;;;;6.89;60.71;94393.72;4921238;29;20442;-79
2022/01/05 07:14:05;;;;;;;318.88;181.43;;;;;;;7.07;60.00;94388.50;4889664;29;20043;-78
2022/01/05 07:16:30;;;;;;;236.15;131.32;;;;;;;7.33;59.46;94383.97;4920604;29;20513;-79
2022/01/05 07:18:58;;;;;;;177.02;101.32;;;;;;;7.58;59.20;94388.94;4919946;29;20042;-79
2022/01/05 07:21:26;;;;;;;377.45;201.40;;;;;;;7.82;58.00;94391.34;4919576;29;20039;-78
2022/01/05 07:23:54;;;;;;;300.08;164.07;;;;;;;8.02;57.91;94395.38;4937115;29;20040;-80
2022/01/05 07:26:21;;;;;;;290.52;157.80;;;;;;;8.16;57.41;94401.13;4903712;29;20511;-80
2022/01/05 07:28:46;;;;;;;220.98;118.40;;;;;;;8.36;56.79;94392.00;4921026;29;20044;-78
2022/01/05 07:31:12;;;;;;;267.27;146.13;;;;;;;8.56;56.85;94396.03;4921362;29;20063;-78
2022/01/05 07:33:37;;;;;;;248.18;144.40;;;;;;;8.76;55.62;94390.44;4920576;29;20134;-79
2022/01/05 07:36:03;;;;;;;236.07;138.55;;;;;;;8.91;54.63;94404.47;4905873;29;20028;-79
2022/01/05 07:38:29;;;;;;;219.55;130.88;;;;;;;9.03;54.70;94396.66;4906914;29;20050;-79
2022/01/05 07:40:57;;;;;;;166.25;101.35;;;;;;;9.05;53.63;94399.81;4906796;29;20031;-80
2022/01/05 07:43:23;;;;;;;162.23;94.63;;;;;;;9.18;54.15;94403.94;4907301;29;20043;-80
2022/01/05 07:45:53;;;;;;;125.97;68.80;;;;;;;9.32;53.23;94394.84;4922657;29;20114;-79
2022/01/05 07:48:19;;;;;;;115.47;61.75;;;;;;;9.44;52.45;94398.19;4867742;29;20055;-83
2022/01/05 07:50:44;;;;;;;106.50;65.13;;;;;;;9.56;52.82;94401.47;4939205;29;20028;-79
2022/01/05 07:53:13;;;;;;;113.68;68.55;;;;;;;9.69;53.32;94392.59;4939122;29;20173;-80
2022/01/05 07:55:39;;;;;;;114.07;65.93;;;;;;;9.81;52.34;94402.91;4943798;29;20404;-79
2022/01/05 07:58:04;;;;;;;99.65;55.42;;;;;;;9.84;52.10;94398.03;5008483;23;20052;-79
2022/01/05 08:00:30;;;;;;;111.50;59.33;;;;;;;9.83;52.63;94404.25;4941139;29;20952;-79
2022/01/05 08:02:55;;;;;;;98.72;56.55;;;;;;;9.86;51.95;94400.38;4943224;29;20095;-81
2022/01/05 08:05:21;;;;;;;105.20;56.42;;;;;;;9.88;52.07;94395.72;4915706;29;20036;-81
2022/01/05 08:10:21;;;;;;;113.50;54.85;;;;;;;9.98;51.51;94416.66;5007428;23;20056;-81
2022/01/05 08:12:47;;;;;;;99.13;56.55;;;;;;;10.10;51.68;94407.00;4941873;29;20034;-80
2022/01/05 08:15:12;;;;;;;94.72;48.85;;;;;;;10.14;50.62;94400.28;4943588;29;20114;-81
2022/01/05 08:17:39;;;;;;;87.18;51.20;;;;;;;10.17;50.34;94397.19;4948786;29;20043;-80
2022/01/05 08:20:06;;;;;;;98.38;50.92;;;;;;;10.22;50.26;94399.88;4949223;29;20070;-79
2022/01/05 08:22:32;;;;;;;95.80;54.42;;;;;;;10.26;49.93;94408.00;4950601;29;20465;-81
2022/01/05 08:25:00;;;;;;;92.22;50.90;;;;;;;10.39;50.43;94404.25;4931909;29;20063;-80
2022/01/05 08:27:27;;;;;;;98.55;52.75;;;;;;;10.49;50.35;94401.81;4913639;29;20031;-80
2022/01/05 08:29:53;;;;;;;89.93;51.65;;;;;;;10.59;49.63;94391.56;4947448;29;20039;-81
2022/01/05 08:32:18;;;;;;;86.68;41.88;;;;;;;10.68;49.58;94387.47;4912227;29;20027;-79
2022/01/05 08:34:44;;;;;;;80.97;38.03;;;;;;;10.72;48.71;94393.75;4946132;29;20128;-79
2022/01/05 08:37:10;;;;;;;88.43;40.92;;;;;;;10.78;48.22;94387.59;4899044;29;20027;-79
2022/01/05 08:39:35;;;;;;;88.38;43.28;;;;;;;10.76;48.11;94388.88;4914728;29;20043;-79
2022/01/05 08:42:01;;;;;;;82.28;44.38;;;;;;;10.77;48.65;94391.25;4931921;29;20031;-80
2022/01/05 08:44:26;;;;;;;80.28;45.55;;;;;;;10.79;47.45;94394.38;4900200;29;20381;-79
2022/01/05 08:46:57;;;;;;;91.57;44.95;;;;;;;10.73;47.67;94378.94;4931949;29;20042;-79
2022/01/05 08:49:22;;;;;;;83.88;45.30;;;;;;;10.80;48.28;94384.75;4933818;29;20034;-79
2022/01/05 08:51:48;;;;;;;91.35;42.15;;;;;;;10.88;47.58;94391.34;4955126;29;20027;-80
2022/01/05 08:54:13;;;;;;;77.15;37.55;;;;;;;10.82;47.64;94393.88;4908484;29;20038;-80
2022/01/05 08:59:17;;;;;;;59.55;30.00;;;;;;;10.85;47.61;94377.00;5300157;23;20102;-80
2022/01/05 09:01:44;;;;;;;52.13;27.90;;;;;;;10.85;47.90;94397.03;4940465;29;20040;-79
2022/01/05 09:04:09;;;;;;;57.00;27.38;;;;;;;10.90;47.16;94384.88;4947267;29;20512;-80
2022/01/05 09:06:35;;;;;;;45.92;26.60;;;;;;;10.94;47.39;94379.97;4915985;29;20054;-79
2022/01/05 09:09:00;;;;;;;51.95;26.17;;;;;;;10.95;47.05;94366.72;4929620;29;20078;-79
2022/01/05 09:11:27;;;;;;;48.38;25.30;;;;;;;10.98;47.46;94381.06;4931697;29;20507;-78
2022/01/05 09:13:52;;;;;;;51.15;26.15;;;;;;;10.98;47.46;94375.84;4914545;29;20051;-79
2022/01/05 09:16:18;;;;;;;48.20;26.25;;;;;;;10.97;47.21;94371.69;4932147;29;20039;-80
2022/01/05 09:18:44;;;;;;;47.80;24.90;;;;;;;10.96;47.14;94372.72;4932106;29;20097;-78
2022/01/05 09:21:10;;;;;;;45.08;22.38;;;;;;;10.94;47.16;94359.94;4939951;29;20062;-78
2022/01/05 09:23:38;;;;;;;48.40;27.35;;;;;;;11.00;47.36;94347.78;4931494;29;20043;-77
2022/01/05 09:26:04;;;;;;;44.40;26.50;;;;;;;10.96;47.03;94357.88;4928026;29;20031;-77
2022/01/05 09:28:29;;;;;;;55.28;25.52;;;;;;;10.88;47.62;94349.72;4951903;29;20082;-79
2022/01/05 09:30:55;;;;;;;38.13;22.23;;;;;;;10.93;47.05;94350.56;4932281;29;20122;-79
2022/01/05 09:33:22;;;;;;;41.63;22.55;;;;;;;10.84;47.13;94339.03;4933439;29;20046;-80
2022/01/05 09:35:49;;;;;;;37.50;20.90;;;;;;;10.68;47.81;94335.47;4903867;29;20042;-80
2022/01/05 09:38:34;;;;;;;32.83;21.80;;;;;;;10.61;48.20;94350.50;4932982;29;20048;-80
2022/01/05 09:43:56;;;;;;;35.80;19.15;;;;;;;10.72;48.27;94330.56;4921267;29;20045;-79
2022/01/05 09:46:43;;;;;;;55.85;18.48;;;;;;;10.79;47.56;94320.78;4903125;29;20110;-79
2022/01/05 09:49:15;;;;;;;28.50;18.73;;;;;;;10.81;47.62;94323.91;4947749;29;20039;-79
2022/01/05 09:51:41;;;;;;;39.47;18.73;;;;;;;10.82;47.53;94315.88;4948593;29;20038;-79
2022/01/05 09:54:07;;;;;;;39.10;17.73;;;;;;;10.90;47.62;94308.63;4933106;29;20036;-79
2022/01/05 09:56:33;;;;;;;37.65;16.48;;;;;;;10.85;47.51;94306.78;4898357;29;20090;-79
2022/01/05 09:59:02;;;;;;;25.65;16.02;;;;;;;10.85;47.53;94309.38;4931824;29;20127;-80
2022/01/05 10:01:31;;;;;;;36.78;16.90;;;;;;;10.94;47.68;94307.13;4932680;29;20114;-78
2022/01/05 10:03:58;;;;;;;27.85;15.40;;;;;;;10.81;47.61;94303.09;4916030;29;20154;-79
2022/01/05 10:06:24;;;;;;;34.15;16.33;;;;;;;10.69;47.87;94295.44;4931780;29;20035;-79
2022/01/05 10:08:49;;;;;;;38.70;15.38;;;;;;;10.53;48.29;94297.09;4902468;29;20050;-81
2022/01/05 10:11:15;;;;;;;27.05;15.90;;;;;;;10.69;48.12;94295.44;4931777;29;20042;-79
2022/01/05 10:13:40;;;;;;;28.92;15.35;;;;;;;10.65;48.05;94290.97;4930256;29;20381;-78
2022/01/05 10:16:07;;;;;;;28.23;16.30;;;;;;;10.69;47.96;94294.66;4911515;29;20035;-78
2022/01/05 10:18:40;;;;;;;28.40;14.68;;;;;;;10.74;47.43;94290.31;4946765;29;20031;-78
2022/01/05 10:21:18;;;;;;;21.70;13.27;;;;;;;10.64;47.62;94281.63;4898910;29;20056;-79
2022/01/05 10:23:47;;;;;;;29.52;14.80;;;;;;;10.66;47.44;94280.34;4914241;29;20043;-79
2022/01/05 10:26:32;;;;;;;31.85;14.73;;;;;;;10.67;47.78;94276.69;4931883;29;20051;-79
2022/01/05 10:29:03;;;;;;;36.85;14.57;;;;;;;10.67;48.45;94266.31;4934602;29;20044;-80
2022/01/05 10:31:35;;;;;;;24.95;12.77;;;;;;;10.75;47.73;94276.28;4925990;29;20027;-80
2022/01/05 10:34:20;;;;;;;23.00;12.23;;;;;;;10.85;47.59;94259.19;4911010;29;20028;-80
2022/01/05 10:36:47;;;;;;;27.33;13.38;;;;;;;11.00;47.26;94267.13;4926679;29;20043;-79
2022/01/05 10:39:12;;;;;;;25.75;12.90;;;;;;;10.98;47.29;94256.97;4950541;29;20036;-81
2022/01/05 10:41:38;;;;;;;24.55;13.30;;;;;;;11.07;47.46;94255.50;4938662;29;20067;-78
2022/01/05 10:44:08;;;;;;;22.73;12.95;;;;;;;11.06;46.93;94250.50;4945747;29;20035;-78
2022/01/05 10:46:37;;;;;;;25.73;12.38;;;;;;;11.14;46.70;94242.25;4907506;29;20031;-78
2022/01/05 10:52:34;;;;;;;23.23;12.73;;;;;;;11.25;46.37;94245.75;4850749;29;20049;-80
2022/01/05 10:55:13;;;;;;;23.00;12.48;;;;;;;11.35;46.70;94236.16;4916363;29;20120;-80
2022/01/05 10:57:59;;;;;;;23.85;12.93;;;;;;;11.39;46.48;94232.06;4955955;29;20036;-78
2022/01/05 11:00:32;;;;;;;29.45;13.23;;;;;;;11.42;46.26;94226.34;4935642;29;20043;-79
2022/01/05 11:02:57;;;;;;;;;;;;;;;11.50;46.06;94226.88;4961094;29;20042;-78
2022/01/05 11:05:22;;;;;;;38.10;13.32;;;;;;;11.45;46.10;94224.25;4939618;29;20406;-80
2022/01/05 11:07:48;;;;;;;24.67;12.13;;;;;;;11.29;46.50;94221.56;4956736;28;20047;-80
2022/01/05 11:10:20;;;;;;;25.95;12.75;;;;;;;11.32;46.20;94215.84;4924936;29;20033;-79
2022/01/05 11:12:47;;;;;;;24.13;12.77;;;;;;;11.40;45.96;94215.38;4949686;29;20024;-79
2022/01/05 11:15:18;;;;;;;20.73;12.65;;;;;;;11.42;46.50;94210.72;4926673;29;20118;-82
2022/01/05 11:20:46;;;;;;;24.20;12.20;;;;;;;11.36;46.15;94203.09;5281476;23;20048;-78
2022/01/05 11:23:12;;;;;;;19.38;11.40;;;;;;;11.31;46.55;94196.06;4945123;29;20040;-78
2022/01/05 11:25:37;;;;;;;24.85;12.18;;;;;;;11.45;46.45;94187.81;4960007;29;20035;-77
2022/01/05 11:28:04;;;;;;;38.67;12.52;;;;;;;11.55;46.37;94183.47;5042574;23;20040;-79
2022/01/05 11:30:29;;;;;;;27.30;13.32;;;;;;;11.56;46.51;94194.66;4957595;29;20016;-78
2022/01/05 11:32:55;;;;;;;22.15;12.05;;;;;;;11.64;46.21;94184.53;4936629;29;20106;-79
2022/01/05 11:35:20;;;;;;;30.65;14.55;;;;;;;11.67;46.08;94180.63;4940844;29;20031;-78
2022/01/05 11:37:46;;;;;;;28.65;12.85;;;;;;;11.66;45.90;94176.47;4939422;29;20040;-78
2022/01/05 11:40:13;;;;;;;23.23;12.43;;;;;;;11.65;46.06;94167.88;4941055;29;20031;-79
2022/01/05 11:42:42;;;;;;;28.48;13.13;;;;;;;11.76;45.99;94160.88;4919006;29;20039;-78
2022/01/05 11:45:11;;;;;;;22.42;13.07;;;;;;;11.85;45.81;94156.78;4938261;29;20023;-79
2022/01/05 11:47:37;;;;;;;26.02;13.82;;;;;;;11.92;45.97;94154.72;4933740;29;20032;-78
2022/01/05 11:50:22;;;;;;;20.95;12.45;;;;;;;11.98;45.72;94158.91;4936148;29;20046;-80